»·PEaware :: N416JK W43-KIEN

N416JK :: W43-KIEN

FLIGHT INFORMATION

Flight Status: Arrived
Operator: Privately registered:
United States
More flights under this callsign
Pilot: John K. (4202)
Aircraft: PIPER PA-23-235/250 AZTEC
(PA27)
More flights by this aircraft type
Origin: W43 Hulett Municipal
United States
Destination: KIEN Pine Ridge
United States
More flights between these airports :: More routes between these airports
Route: +ROCNO V86 RAP V169 WAXER
File this flight plan on PilotEdge
Remarks: 120.47 WUS EXP ALPHABET CHALLENGE
Altitude:
(Current/Filed)
11,000ft
Speed:
(Current/Filed)
180kts
Departed: 03-Apr-17 09:01 AM
Arrived: 03-Apr-17 10:08 AM
Distance/Time
Traveled:
902nm/1:07
Distance/Time
To Go:
Arrived

Flight Plot

Page will automatically refresh every two minutes.


Map Options




Map Legend


Flown Route
Filed Route
Departure Airport
Arrival Airport
Navaid (VOR, NDB)
Fix

Horizontal Profiles

Position Reports

Time Latitude Longitude Heading Altitude Ground
Speed
03-Apr-17 08:56 44.668375 -104.572120 274 4267ft 0kts
03-Apr-17 08:57 44.668375 -104.572120 274 4267ft 0kts
03-Apr-17 08:58 44.668375 -104.572120 274 4267ft 0kts
03-Apr-17 08:59 44.669159 -104.573550 243 4267ft 0kts
03-Apr-17 09:00 44.669159 -104.573550 243 4267ft 0kts
03-Apr-17 09:01 44.668826 -104.574167 209 4267ft 7kts
03-Apr-17 09:02 44.651603 -104.553029 123 5094ft 115kts
03-Apr-17 09:03 44.633631 -104.519229 121 6847ft 112kts
03-Apr-17 09:04 44.615968 -104.483122 116 8394ft 118kts
03-Apr-17 09:05 44.598066 -104.442602 113 9813ft 135kts
03-Apr-17 09:06 44.573187 -104.390391 127 10457ft 186kts
03-Apr-17 09:07 44.536645 -104.337811 126 10980ft 201kts
03-Apr-17 09:08 44.494253 -104.283801 139 10977ft 214kts
03-Apr-17 09:09 44.450593 -104.232823 133 10975ft 198kts
03-Apr-17 09:10 44.410977 -104.183266 132 11003ft 193kts
03-Apr-17 09:11 44.371548 -104.133672 132 10994ft 193kts
03-Apr-17 09:12 44.331251 -104.083014 133 10995ft 203kts
03-Apr-17 09:13 44.289065 -104.030140 133 10994ft 207kts
03-Apr-17 09:14 44.246032 -103.976308 133 10994ft 208kts
03-Apr-17 09:15 44.203638 -103.923368 133 10994ft 206kts
03-Apr-17 09:16 44.172635 -103.862033 102 10997ft 197kts
03-Apr-17 09:17 44.156349 -103.790028 102 10996ft 197kts
03-Apr-17 09:18 44.139966 -103.718019 103 10991ft 197kts
03-Apr-17 09:19 44.123359 -103.645279 103 10985ft 197kts
03-Apr-17 09:20 44.106969 -103.573734 103 10977ft 196kts
03-Apr-17 09:21 44.090541 -103.502254 103 10969ft 196kts
03-Apr-17 09:22 44.075957 -103.438689 107 11097ft 197kts
03-Apr-17 09:23 44.061413 -103.376087 107 11097ft 201kts
03-Apr-17 09:24 44.044191 -103.301888 107 11097ft 202kts
03-Apr-17 09:25 44.027121 -103.228506 107 11097ft 202kts
03-Apr-17 09:26 44.010158 -103.155843 107 11097ft 202kts
03-Apr-17 09:27 43.993248 -103.083640 107 11097ft 201kts
03-Apr-17 09:28 43.969510 -103.019179 167 11104ft 199kts
03-Apr-17 09:29 43.914437 -103.025681 187 11097ft 200kts
03-Apr-17 09:30 43.860818 -103.036891 188 11097ft 200kts
03-Apr-17 09:31 43.807132 -103.048428 188 11097ft 200kts
03-Apr-17 09:32 43.753464 -103.059964 188 11097ft 200kts
03-Apr-17 09:33 43.699064 -103.071642 188 11097ft 200kts
03-Apr-17 09:34 43.644109 -103.083427 188 11097ft 200kts
03-Apr-17 09:35 43.589765 -103.095055 188 11097ft 200kts
03-Apr-17 09:36 43.535286 -103.106690 188 11097ft 200kts
03-Apr-17 09:37 43.480928 -103.118270 188 11097ft 200kts
03-Apr-17 09:38 43.426630 -103.129814 188 11097ft 200kts
03-Apr-17 09:39 43.371691 -103.141474 188 11097ft 200kts
03-Apr-17 09:40 43.317398 -103.152983 188 11097ft 200kts
03-Apr-17 09:41 43.263975 -103.164280 188 11097ft 194kts
03-Apr-17 09:42 43.211277 -103.175412 188 10851ft 202kts
03-Apr-17 09:43 43.158793 -103.186488 188 9899ft 192kts
03-Apr-17 09:44 43.104492 -103.197892 188 8250ft 192kts
03-Apr-17 09:45 43.054071 -103.208200 188 7062ft 184kts
03-Apr-17 09:46 43.005642 -103.218470 188 6241ft 162kts
03-Apr-17 09:47 42.966845 -103.219051 130 5868ft 149kts
03-Apr-17 09:48 42.957007 -103.171969 102 5909ft 118kts
03-Apr-17 09:49 42.950345 -103.129836 101 5918ft 120kts
03-Apr-17 09:50 42.942329 -103.076330 101 5916ft 167kts
03-Apr-17 09:51 42.932796 -103.011874 101 5826ft 187kts
03-Apr-17 09:52 42.922669 -102.943634 100 5794ft 192kts
03-Apr-17 09:53 42.912216 -102.872906 100 5787ft 192kts
03-Apr-17 09:54 42.901570 -102.801384 99 5782ft 191kts
03-Apr-17 09:55 42.891088 -102.731633 98 5777ft 189kts
03-Apr-17 09:56 42.880675 -102.662627 98 5775ft 187kts
03-Apr-17 09:57 42.870296 -102.594200 98 5775ft 187kts
03-Apr-17 09:58 42.859859 -102.525661 98 5775ft 187kts
03-Apr-17 09:59 42.849399 -102.457278 98 5775ft 185kts
03-Apr-17 10:00 42.838970 -102.389227 97 5775ft 182kts
03-Apr-17 10:01 42.863960 -102.344270 35 5770ft 132kts
03-Apr-17 10:02 42.889631 -102.316033 34 5774ft 113kts
03-Apr-17 10:03 42.915339 -102.328879 314 5149ft 137kts
03-Apr-17 10:04 42.936819 -102.364099 312 5044ft 110kts
03-Apr-17 10:05 42.955456 -102.395193 313 5047ft 103kts
03-Apr-17 10:06 42.974964 -102.428056 312 4559ft 129kts
03-Apr-17 10:07 42.993782 -102.461394 312 4211ft 108kts
03-Apr-17 10:08 43.011784 -102.490463 311 3552ft 95kts
03-Apr-17 10:09 43.021019 -102.506107 309 3336ft 16kts
03-Apr-17 10:10 43.020751 -102.506720 130 3336ft 0kts
03-Apr-17 10:11 43.020751 -102.506720 130 3336ft 0kts
03-Apr-17 10:22 33.676222 -117.871046 219 59ft 0kts
03-Apr-17 10:23 33.676222 -117.871046 219 59ft 0kts

Navigation Log

Ident Type
Flight plan parsing failed, navigation log unavailable